Date,TemperatureHighF,TemperatureAvgF,TemperatureLowF,DewpointHighF,DewpointAvgF,DewpointLowF,HumidityHigh,HumidityAvg,HumidityLow,PressureMaxIn,PressureMinIn,WindSpeedMaxMPH,WindSpeedAvgMPH,GustSpeedMaxMPH,PrecipitationSumIn
2013-1-1,38,30,20,38,29,19,99,97,93,30.26,30.01,12,6,17,0.01
2013-1-2,42,28,16,32,24,16,99,87,65,30.26,30.14,9,3,14,0.00
2013-1-3,50,33,22,36,28,22,99,83,48,30.43,30.25,7,2,9,0.00
2013-1-4,54,35,21,31,26,20,99,74,38,30.42,30.27,12,4,16,0.00
2013-1-5,50,42,36,37,34,28,85,73,58,30.27,30.12,13,7,15,0.00
2013-1-6,53,35,26,30,26,22,93,72,37,30.38,30.23,11,3,11,0.00
2013-1-7,54,38,24,34,28,20,87,69,45,30.30,30.06,15,5,17,0.00
2013-1-8,58,44,35,48,37,29,99,78,54,30.16,29.99,12,5,18,0.06
2013-1-9,55,49,44,49,46,43,99,89,69,30.30,30.13,11,5,15,0.01
2013-1-10,57,52,49,57,51,46,99,97,81,30.11,29.76,14,6,17,0.15
2013-1-11,71,57,46,54,50,45,99,79,48,29.81,29.62,17,10,24,0.01
2013-1-12,62,38,25,54,31,23,99,80,42,30.04,29.76,21,5,21,0.05
2013-1-13,33,25,18,23,18,14,93,77,59,30.34,29.99,0,0,0,0.00
2013-1-14,35,25,16,22,18,13,91,76,54,30.45,30.30,14,2,14,0.01
2013-1-15,36,27,18,24,18,14,95,72,46,30.31,30.16,11,4,14,0.00
2013-1-16,51,35,17,25,21,14,94,60,33,30.19,30.06,9,3,11,0.00
2013-1-17,57,41,29,37,30,22,91,69,40,30.43,30.17,14,4,15,0.00
2013-1-18,60,46,33,37,33,29,86,64,37,30.45,30.13,18,8,22,0.00
2013-1-19,68,52,41,41,38,34,78,62,37,30.17,30.02,13,6,17,0.00
2013-1-20,66,45,31,43,33,20,89,64,42,30.27,30.08,17,6,18,0.00
2013-1-21,44,31,22,20,18,16,77,60,37,30.40,30.25,15,6,15,0.00
2013-1-22,54,34,18,32,24,15,90,70,43,30.29,30.13,11,3,15,0.00
2013-1-23,64,44,26,46,35,24,91,73,51,30.22,30.08,9,3,12,0.00
2013-1-24,44,38,34,35,26,22,71,61,51,30.26,30.06,19,8,19,0.00
2013-1-25,54,40,31,33,29,25,79,65,43,30.21,30.08,9,3,12,0.00
2013-1-26,58,44,30,38,32,27,91,65,38,30.22,30.07,14,5,18,0.00
2013-1-27,64,54,46,60,52,39,99,93,73,30.06,29.81,22,12,22,0.00
2013-1-28,77,69,59,66,65,59,99,88,69,29.88,29.69,22,12,22,0.00
2013-1-29,70,61,44,66,58,44,99,92,77,29.70,29.40,21,10,23,0.83
2013-1-30,42,36,25,41,30,22,97,80,59,30.03,29.56,21,10,21,0.00
2013-1-31,28,27,25,26,25,23,97,93,90,30.02,29.97,6,2,8,0.00